Time;durP1;ratioP1;P1;durP2;ratioP2;P2;SDS_P1;SDS_P2;PMS_P1;PMS_P2;Temp;Humidity;BMP_temperature;BMP_pressure;BME280_temperature;BME280_humidity;BME280_pressure;Samples;Min_cycle;Max_cycle;Signal;HPM_P1;HPM_P2
2021/12/25 00:00:57;;;;;;;;;;;;;;;;;;5033058;28;19924;-81
2021/12/25 00:03:25;;;;;;;;;;;;;;;;;;5033508;28;19917;-81
2021/12/25 00:05:52;;;;;;;;;;;;;;;;;;5034179;28;20408;-81
2021/12/25 00:08:21;;;;;;;;;;;;;;;;;;5033882;28;19918;-81
2021/12/25 00:10:46;;;;;;;;;;;;;;;;;;5034009;28;19913;-80
2021/12/25 00:13:12;;;;;;;;;;;;;;;;;;5033628;28;19913;-81
2021/12/25 00:15:39;;;;;;;;;;;;;;;;;;5033888;28;20374;-81
2021/12/25 00:18:05;;;;;;;;;;;;;;;;;;5032716;28;19943;-81
2021/12/25 00:20:30;;;;;;;;;;;;;;;;;;5033338;28;19917;-81
2021/12/25 00:23:04;;;;;;;;;;;;;;;;;;5033793;28;19913;-81
2021/12/25 00:25:32;;;;;;;;;;;;;;;;;;5033553;28;19924;-81
2021/12/25 00:28:05;;;;;;;;;;;;;;;;;;5033527;28;20003;-80
2021/12/25 00:30:44;;;;;;;;;;;;;;;;;;5033526;28;20468;-81
2021/12/25 00:35:52;;;;;;;;;;;;;;;;;;5035742;28;19975;-80
2021/12/25 00:38:18;;;;;;;;;;;;;;;;;;5025362;28;19921;-80
2021/12/25 00:40:43;;;;;;;;;;;;;;;;;;5017176;28;20052;-80
2021/12/25 00:43:08;;;;;;;;;;;;;;;;;;5017260;28;19928;-80
2021/12/25 00:45:33;;;;;;;;;;;;;;;;;;5017104;28;19988;-81
2021/12/25 00:48:01;;;;;;;;;;;;;;;;;;5017177;28;20501;-80
2021/12/25 00:50:26;;;;;;;;;;;;;;;;;;5016982;28;20254;-80
2021/12/25 00:52:51;;;;;;;;;;;;;;;;;;5017015;28;19913;-80
2021/12/25 00:55:16;;;;;;;;;;;;;;;;;;5016697;28;19914;-80
2021/12/25 00:57:42;;;;;;;;;;;;;;;;;;5016853;28;19913;-80
2021/12/25 01:00:10;;;;;;;;;;;;;;;;;;5016743;28;20469;-80
2021/12/25 01:02:36;;;;;;;;;;;;;;;;;;5016977;28;20045;-80
2021/12/25 01:05:01;;;;;;;;;;;;;;;;;;5016786;28;19913;-80
2021/12/25 01:07:29;;;;;;;;;;;;;;;;;;4998971;28;20251;-80
2021/12/25 01:09:54;;;;;;;;;;;;;;;;;;5016814;28;20343;-80
2021/12/25 01:12:19;;;;;;;;;;;;;;;;;;5016220;28;19973;-80
2021/12/25 01:14:50;;;;;;;;;;;;;;;;;;5016640;28;20258;-80
2021/12/25 01:30:47;;;;;;;;;;;;;;;;;;5016216;28;19956;-80
2021/12/25 01:38:55;;;;;;;;;;;;;;;;;;5015930;28;20009;-80
2021/12/25 01:49:22;;;;;;;;;;;;;;;;;;5016072;28;19924;-80
2021/12/25 01:51:47;;;;;;;;;;;;;;;;;;5016077;28;19918;-80
2021/12/25 01:54:13;;;;;;;;;;;;;;;;;;4998728;28;20354;-80
2021/12/25 01:56:39;;;;;;;;;;;;;;;;;;5015322;28;20314;-80
2021/12/25 01:59:08;;;;;;;;;;;;;;;;;;4997644;28;20388;-80
2021/12/25 02:01:36;;;;;;;;;;;;;;;;;;5015719;28;20397;-80
2021/12/25 02:04:01;;;;;;;;;;;;;;;;;;4998272;28;19914;-79
2021/12/25 02:06:26;;;;;;;;;;;;;;;;;;4982136;28;20262;-79
2021/12/25 02:08:52;;;;;;;;;;;;;;;;;;5015571;28;19921;-80
2021/12/25 02:11:17;;;;;;;;;;;;;;;;;;4982384;28;19996;-80
2021/12/25 02:13:43;;;;;;;;;;;;;;;;;;5015256;28;19922;-79
2021/12/25 02:16:13;;;;;;;;;;;;;;;;;;5015419;28;20350;-79
2021/12/25 02:21:27;;;;;;;;;;;;;;;;;;5015501;28;19968;-80
2021/12/25 02:23:53;;;;;;;;;;;;;;;;;;5015645;28;19976;-79
2021/12/25 02:26:18;;;;;;;;;;;;;;;;;;5015252;28;19925;-79
2021/12/25 02:28:43;;;;;;;;;;;;;;;;;;5014816;28;20342;-80
2021/12/25 02:31:10;;;;;;;;;;;;;;;;;;4996945;28;20258;-79
2021/12/25 02:33:35;;;;;;;;;;;;;;;;;;5014739;28;19917;-80
2021/12/25 02:36:01;;;;;;;;;;;;;;;;;;4998342;28;19913;-80
2021/12/25 02:38:26;;;;;;;;;;;;;;;;;;5002951;28;20354;-80
2021/12/25 02:40:52;;;;;;;;;;;;;;;;;;5034887;28;19945;-81
2021/12/25 02:43:19;;;;;;;;;;;;;;;;;;5034024;28;20023;-80
2021/12/25 02:45:45;;;;;;;;;;;;;;;;;;5034594;28;20346;-80
2021/12/25 02:48:16;;;;;;;;;;;;;;;;;;5017372;28;19983;-80
2021/12/25 02:50:41;;;;;;;;;;;;;;;;;;5034816;28;19979;-79
2021/12/25 02:53:07;;;;;;;;;;;;;;;;;;5032421;28;19913;-81
2021/12/25 02:55:33;;;;;;;;;;;;;;;;;;5034372;28;19928;-82
2021/12/25 02:57:58;;;;;;;;;;;;;;;;;;5033811;28;19912;-81
2021/12/25 03:00:25;;;;;;;;;;;;;;;;;;5032083;28;20339;-82
2021/12/25 03:02:50;;;;;;;;;;;;;;;;;;5031027;28;19928;-81
2021/12/25 03:05:16;;;;;;;;;;;;;;;;;;5038397;28;20214;-81
2021/12/25 03:07:41;;;;;;;;;;;;;;;;;;5052728;28;19917;-81
2021/12/25 03:10:07;;;;;;;;;;;;;;;;;;5054291;28;20349;-80
2021/12/25 03:12:45;;;;;;;;;;;;;;;;;;5041450;28;20429;-82
2021/12/25 03:15:16;;;;;;;;;;;;;;;;;;5034388;28;19912;-81
2021/12/25 03:17:42;;;;;;;;;;;;;;;;;;5033173;28;19913;-80
2021/12/25 03:20:10;;;;;;;;;;;;;;;;;;5033103;28;19983;-80
2021/12/25 03:22:37;;;;;;;;;;;;;;;;;;5034113;28;20007;-81
2021/12/25 03:25:04;;;;;;;;;;;;;;;;;;5033131;28;19917;-82
2021/12/25 03:27:29;;;;;;;;;;;;;;;;;;5038159;28;20235;-82
2021/12/25 03:29:54;;;;;;;;;;;;;;;;;;5053150;28;19917;-81
2021/12/25 03:32:20;;;;;;;;;;;;;;;;;;5054101;28;20349;-81
2021/12/25 03:34:45;;;;;;;;;;;;;;;;;;5054330;28;19913;-81
2021/12/25 03:37:10;;;;;;;;;;;;;;;;;;5037782;28;19924;-81
2021/12/25 03:39:35;;;;;;;;;;;;;;;;;;5034225;28;20258;-81
2021/12/25 03:42:03;;;;;;;;;;;;;;;;;;5033977;28;19924;-82
2021/12/25 03:44:29;;;;;;;;;;;;;;;;;;5034041;28;20346;-81
2021/12/25 03:46:58;;;;;;;;;;;;;;;;;;5034097;28;19913;-81
2021/12/25 03:49:35;;;;;;;;;;;;;;;;;;5033205;28;19917;-81
2021/12/25 03:57:40;;;;;;;;;;;;;;;;;;5033222;28;19923;-80
2021/12/25 04:00:07;;;;;;;;;;;;;;;;;;5033905;28;19927;-81
2021/12/25 04:02:43;;;;;;;;;;;;;;;;;;5033765;28;20346;-80
2021/12/25 04:05:15;;;;;;;;;;;;;;;;;;5032636;28;19917;-81
2021/12/25 04:08:03;;;;;;;;;;;;;;;;;;5033632;28;19917;-81
2021/12/25 04:10:29;;;;;;;;;;;;;;;;;;5035461;28;20007;-82
2021/12/25 04:12:54;;;;;;;;;;;;;;;;;;5037521;28;20020;-81
2021/12/25 04:15:20;;;;;;;;;;;;;;;;;;5037541;28;20004;-81
2021/12/25 04:17:45;;;;;;;;;;;;;;;;;;5037515;28;19927;-83
2021/12/25 04:20:12;;;;;;;;;;;;;;;;;;5013829;28;19932;-84
2021/12/25 04:22:49;;;;;;;;;;;;;;;;;;5038186;28;19994;-84
2021/12/25 04:25:21;;;;;;;;;;;;;;;;;;5036428;28;19917;-84
2021/12/25 04:27:49;;;;;;;;;;;;;;;;;;5037261;28;19913;-84
2021/12/25 04:42:31;;;;;;;;;;;;;;;;;;5037245;28;19928;-82
2021/12/25 05:03:20;;;;;;;;;;;;;;;;;;5036555;28;19924;-82
2021/12/25 05:05:42;;;;;;;;;;;;;;;;;;5028214;28;20369;-83
2021/12/25 05:08:08;;;;;;;;;;;;;;;;;;5035977;28;19917;-83
2021/12/25 05:10:33;;;;;;;;;;;;;;;;;;5036663;28;19921;-83
2021/12/25 05:12:58;;;;;;;;;;;;;;;;;;5035302;28;19928;-83
2021/12/25 05:15:24;;;;;;;;;;;;;;;;;;5035810;28;19948;-83
2021/12/25 05:17:49;;;;;;;;;;;;;;;;;;5035495;28;19913;-83
2021/12/25 05:20:14;;;;;;;;;;;;;;;;;;5036207;28;19925;-83
2021/12/25 05:22:39;;;;;;;;;;;;;;;;;;5041693;28;19924;-84
2021/12/25 05:25:05;;;;;;;;;;;;;;;;;;5036470;28;19913;-84
2021/12/25 05:27:30;;;;;;;;;;;;;;;;;;5035026;28;19928;-83
2021/12/25 05:29:55;;;;;;;;;;;;;;;;;;5035478;28;19913;-83
2021/12/25 05:32:21;;;;;;;;;;;;;;;;;;5036200;28;20327;-83
2021/12/25 05:34:46;;;;;;;;;;;;;;;;;;5035476;28;20349;-84
2021/12/25 05:37:11;;;;;;;;;;;;;;;;;;5033504;28;19913;-83
2021/12/25 05:39:42;;;;;;;;;;;;;;;;;;4999003;28;19918;-83
2021/12/25 05:42:07;;;;;;;;;;;;;;;;;;4999063;28;19917;-83
2021/12/25 05:44:32;;;;;;;;;;;;;;;;;;5016013;28;19921;-82
2021/12/25 05:46:58;;;;;;;;;;;;;;;;;;4998713;28;19921;-83
2021/12/25 05:49:24;;;;;;;;;;;;;;;;;;5016030;28;19921;-83
2021/12/25 05:51:49;;;;;;;;;;;;;;;;;;5016338;28;19924;-82
2021/12/25 05:54:15;;;;;;;;;;;;;;;;;;5015817;28;20330;-83
2021/12/25 05:56:40;;;;;;;;;;;;;;;;;;4998635;28;19922;-83
2021/12/25 05:59:07;;;;;;;;;;;;;;;;;;5015804;28;19984;-82
2021/12/25 06:01:32;;;;;;;;;;;;;;;;;;5015994;28;20008;-83
2021/12/25 06:03:57;;;;;;;;;;;;;;;;;;4982671;28;20015;-83
2021/12/25 06:06:25;;;;;;;;;;;;;;;;;;5015766;28;19913;-83
2021/12/25 06:08:50;;;;;;;;;;;;;;;;;;4982620;28;20346;-83
2021/12/25 06:11:17;;;;;;;;;;;;;;;;;;4980372;28;19928;-83
2021/12/25 06:13:48;;;;;;;;;;;;;;;;;;4998781;28;19949;-84
2021/12/25 06:16:13;;;;;;;;;;;;;;;;;;4983024;28;19924;-83
2021/12/25 06:18:41;;;;;;;;;;;;;;;;;;4978323;28;20429;-83
2021/12/25 06:21:08;;;;;;;;;;;;;;;;;;5012700;28;20247;-83
2021/12/25 06:23:34;;;;;;;;;;;;;;;;;;5015463;28;19913;-84
2021/12/25 06:25:59;;;;;;;;;;;;;;;;;;5015569;28;20397;-83
2021/12/25 06:28:24;;;;;;;;;;;;;;;;;;5015472;28;19924;-83
2021/12/25 06:30:49;;;;;;;;;;;;;;;;;;4998276;28;19913;-83
2021/12/25 06:33:15;;;;;;;;;;;;;;;;;;5014994;28;20025;-83
2021/12/25 06:35:40;;;;;;;;;;;;;;;;;;4998197;28;20298;-83
2021/12/25 06:38:07;;;;;;;;;;;;;;;;;;5015041;28;19928;-83
2021/12/25 06:40:35;;;;;;;;;;;;;;;;;;5015026;28;19980;-83
2021/12/25 06:43:01;;;;;;;;;;;;;;;;;;5015117;28;19917;-82
2021/12/25 06:45:29;;;;;;;;;;;;;;;;;;5014958;28;20434;-83
2021/12/25 06:47:54;;;;;;;;;;;;;;;;;;5014709;28;20012;-83
2021/12/25 06:50:20;;;;;;;;;;;;;;;;;;5014677;28;20024;-82
2021/12/25 06:52:45;;;;;;;;;;;;;;;;;;4997720;28;19960;-82
2021/12/25 06:55:11;;;;;;;;;;;;;;;;;;5014485;28;19917;-82
2021/12/25 06:57:43;;;;;;;;;;;;;;;;;;5014707;28;19993;-83
2021/12/25 07:00:11;;;;;;;;;;;;;;;;;;4998543;28;20541;-83
2021/12/25 07:02:36;;;;;;;;;;;;;;;;;;5014862;28;19929;-83
2021/12/25 07:05:02;;;;;;;;;;;;;;;;;;5014699;28;19913;-82
2021/12/25 07:07:27;;;;;;;;;;;;;;;;;;5014471;28;19914;-82
2021/12/25 07:09:52;;;;;;;;;;;;;;;;;;5014569;28;19925;-82
2021/12/25 07:12:19;;;;;;;;;;;;;;;;;;5014606;28;19936;-82
2021/12/25 07:14:44;;;;;;;;;;;;;;;;;;5014873;28;20247;-82
2021/12/25 07:17:09;;;;;;;;;;;;;;;;;;5014594;28;19913;-83
2021/12/25 07:19:35;;;;;;;;;;;;;;;;;;4997276;28;19914;-82
2021/12/25 07:22:00;;;;;;;;;;;;;;;;;;5014364;28;19921;-83
2021/12/25 07:24:25;;;;;;;;;;;;;;;;;;4996185;28;19936;-82
2021/12/25 07:26:50;;;;;;;;;;;;;;;;;;5014587;28;19924;-82
2021/12/25 07:29:15;;;;;;;;;;;;;;;;;;5014495;28;19920;-82
2021/12/25 07:31:43;;;;;;;;;;;;;;;;;;5014429;28;19913;-82
2021/12/25 07:34:08;;;;;;;;;;;;;;;;;;5014378;28;19925;-82
2021/12/25 07:36:36;;;;;;;;;;;;;;;;;;5014299;28;19913;-83
2021/12/25 07:39:01;;;;;;;;;;;;;;;;;;5013881;28;19929;-83
2021/12/25 07:41:29;;;;;;;;;;;;;;;;;;5013564;28;19917;-83
2021/12/25 07:43:54;;;;;;;;;;;;;;;;;;5014313;28;19967;-83
2021/12/25 07:46:21;;;;;;;;;;;;;;;;;;5017019;28;19957;-84
2021/12/25 07:48:47;;;;;;;;;;;;;;;;;;5018273;28;19925;-83
2021/12/25 07:51:12;;;;;;;;;;;;;;;;;;5020057;28;19925;-83
2021/12/25 07:53:37;;;;;;;;;;;;;;;;;;5037933;28;20353;-82
2021/12/25 07:56:03;;;;;;;;;;;;;;;;;;5020362;28;20251;-82
2021/12/25 07:58:28;;;;;;;;;;;;;;;;;;5037940;28;19921;-82
2021/12/25 08:00:53;;;;;;;;;;;;;;;;;;5037765;28;19917;-83
2021/12/25 08:03:21;;;;;;;;;;;;;;;;;;5056525;28;19999;-82
2021/12/25 08:05:46;;;;;;;;;;;;;;;;;;5045273;28;19917;-81
2021/12/25 08:08:12;;;;;;;;;;;;;;;;;;5038133;28;20374;-86
2021/12/25 08:10:38;;;;;;;;;;;;;;;;;;5036905;28;19913;-85
2021/12/25 08:13:03;;;;;;;;;;;;;;;;;;5036904;28;19913;-83
2021/12/25 08:15:31;;;;;;;;;;;;;;;;;;5036784;28;19924;-83
2021/12/25 08:17:57;;;;;;;;;;;;;;;;;;5041771;28;20360;-83
2021/12/25 08:20:23;;;;;;;;;;;;;;;;;;5034707;28;19918;-83
2021/12/25 08:22:48;;;;;;;;;;;;;;;;;;5016858;28;19925;-83
2021/12/25 08:25:14;;;;;;;;;;;;;;;;;;5017827;28;19914;-83
2021/12/25 08:27:43;;;;;;;;;;;;;;;;;;5016893;28;19957;-83
2021/12/25 08:30:10;;;;;;;;;;;;;;;;;;5017899;28;19967;-83
2021/12/25 08:32:36;;;;;;;;;;;;;;;;;;5028049;28;19917;-83
2021/12/25 08:35:01;;;;;;;;;;;;;;;;;;5037765;28;20316;-83
2021/12/25 08:37:26;;;;;;;;;;;;;;;;;;5032796;28;19921;-80
2021/12/25 08:39:52;;;;;;;;;;;;;;;;;;5018639;28;19999;-81
2021/12/25 08:42:22;;;;;;;;;;;;;;;;;;5001942;28;20012;-83
2021/12/25 08:47:31;;;;;;;;;;;;;;;;;;5002392;28;19917;-83
2021/12/25 08:50:07;;;;;;;;;;;;;;;;;;5014118;28;19917;-83
2021/12/25 08:52:32;;;;;;;;;;;;;;;;;;5024877;28;20343;-84
2021/12/25 08:55:00;;;;;;;;;;;;;;;;;;5017116;28;19984;-84
2021/12/25 08:57:25;;;;;;;;;;;;;;;;;;4999641;28;19987;-85
2021/12/25 08:59:51;;;;;;;;;;;;;;;;;;5016593;28;20335;-85
2021/12/25 09:02:36;;;;;;;;;;;;;;;;;;5016679;28;19952;-85
2021/12/25 09:05:24;;;;;;;;;;;;;;;;;;5000405;28;19917;-82
2021/12/25 09:08:05;;;;;;;;;;;;;;;;;;5016418;28;19960;-83
2021/12/25 09:10:41;;;;;;;;;;;;;;;;;;4999801;28;19913;-85
2021/12/25 09:13:12;;;;;;;;;;;;;;;;;;4983370;28;19979;-84
2021/12/25 09:15:37;;;;;;;;;;;;;;;;;;5014834;28;19917;-84
2021/12/25 09:18:03;;;;;;;;;;;;;;;;;;5015917;28;19950;-87
2021/12/25 09:20:46;;;;;;;;;;;;;;;;;;4998576;28;19925;-86
2021/12/25 09:23:11;;;;;;;;;;;;;;;;;;5000914;28;19913;-85
2021/12/25 09:25:37;;;;;;;;;;;;;;;;;;5016113;28;19924;-84
2021/12/25 09:28:02;;;;;;;;;;;;;;;;;;5015916;28;19917;-84
2021/12/25 09:30:27;;;;;;;;;;;;;;;;;;5016520;28;20015;-84
2021/12/25 09:32:52;;;;;;;;;;;;;;;;;;5016365;28;19971;-85
2021/12/25 09:35:18;;;;;;;;;;;;;;;;;;4981561;28;19921;-85
2021/12/25 09:37:43;;;;;;;;;;;;;;;;;;5015792;28;19921;-85
2021/12/25 09:40:11;;;;;;;;;;;;;;;;;;5016211;28;19921;-85
2021/12/25 09:42:40;;;;;;;;;;;;;;;;;;5016381;28;19917;-85
2021/12/25 09:45:06;;;;;;;;;;;;;;;;;;5016161;28;19975;-83
2021/12/25 09:47:32;;;;;;;;;;;;;;;;;;4998609;28;19929;-83
2021/12/25 09:49:57;;;;;;;;;;;;;;;;;;4998823;28;20313;-83
2021/12/25 09:52:22;;;;;;;;;;;;;;;;;;5015851;28;20026;-82
2021/12/25 09:54:55;;;;;;;;;;;;;;;;;;5020010;28;20074;-83
2021/12/25 09:57:20;;;;;;;;;;;;;;;;;;4998456;28;19945;-82
2021/12/25 09:59:46;;;;;;;;;;;;;;;;;;4994291;28;19928;-82
2021/12/25 10:02:13;;;;;;;;;;;;;;;;;;5016125;28;20377;-81
2021/12/25 10:04:48;;;;;;;;;;;;;;;;;;4998594;28;19917;-81
2021/12/25 10:07:16;;;;;;;;;;;;;;;;;;4997663;28;20859;-81
2021/12/25 10:09:41;;;;;;;;;;;;;;;;;;4998143;28;20409;-82
2021/12/25 10:12:08;;;;;;;;;;;;;;;;;;5015447;28;19921;-82
2021/12/25 10:14:34;;;;;;;;;;;;;;;;;;4998235;28;19995;-83
2021/12/25 10:17:10;;;;;;;;;;;;;;;;;;4998139;28;19917;-82
2021/12/25 10:19:36;;;;;;;;;;;;;;;;;;4998350;28;19917;-83
2021/12/25 10:22:03;;;;;;;;;;;;;;;;;;5015731;28;20000;-82
2021/12/25 10:24:29;;;;;;;;;;;;;;;;;;4981614;28;20370;-81
2021/12/25 10:27:07;;;;;;;;;;;;;;;;;;5015175;28;19975;-83
2021/12/25 10:29:33;;;;;;;;;;;;;;;;;;4999411;28;19944;-83
2021/12/25 10:31:59;;;;;;;;;;;;;;;;;;5014848;28;20342;-82
2021/12/25 10:34:28;;;;;;;;;;;;;;;;;;4998276;28;19925;-82
2021/12/25 10:36:53;;;;;;;;;;;;;;;;;;5022969;28;20235;-82
2021/12/25 10:39:20;;;;;;;;;;;;;;;;;;5051297;28;19966;-83
2021/12/25 10:42:09;;;;;;;;;;;;;;;;;;5046876;28;19916;-83
2021/12/25 10:44:37;;;;;;;;;;;;;;;;;;5044259;28;20000;-83
2021/12/25 10:47:30;;;;;;;;;;;;;;;;;;5038637;28;19924;-84
2021/12/25 10:49:59;;;;;;;;;;;;;;;;;;5014089;28;19914;-83
2021/12/25 10:52:40;;;;;;;;;;;;;;;;;;5034916;28;19927;-83
2021/12/25 10:55:12;;;;;;;;;;;;;;;;;;5054896;28;19912;-83
2021/12/25 10:57:39;;;;;;;;;;;;;;;;;;5037061;28;19917;-82
2021/12/25 11:00:25;;;;;;;;;;;;;;;;;;5034193;28;20397;-83
2021/12/25 11:03:23;;;;;;;;;;;;;;;;;;5034210;28;20294;-84
2021/12/25 11:06:10;;;;;;;;;;;;;;;;;;5015069;28;19922;-85
2021/12/25 11:08:36;;;;;;;;;;;;;;;;;;5028742;28;20310;-83
2021/12/25 11:11:04;;;;;;;;;;;;;;;;;;5043062;28;19971;-82
2021/12/25 11:13:49;;;;;;;;;;;;;;;;;;5054708;28;19912;-81
2021/12/25 11:16:18;;;;;;;;;;;;;;;;;;5044244;28;19917;-85
2021/12/25 11:19:06;;;;;;;;;;;;;;;;;;5033133;28;19971;-82
2021/12/25 11:21:36;;;;;;;;;;;;;;;;;;5013632;28;19913;-83
2021/12/25 11:24:07;;;;;;;;;;;;;;;;;;5014473;28;19921;-83
2021/12/25 11:26:35;;;;;;;;;;;;;;;;;;5032423;28;19917;-83
2021/12/25 11:29:04;;;;;;;;;;;;;;;;;;5034042;28;19928;-82
2021/12/25 11:31:30;;;;;;;;;;;;;;;;;;5034875;28;20020;-83
2021/12/25 11:33:56;;;;;;;;;;;;;;;;;;5034178;28;20019;-82
2021/12/25 11:36:21;;;;;;;;;;;;;;;;;;5016701;28;19924;-82
2021/12/25 11:38:46;;;;;;;;;;;;;;;;;;5019258;28;20269;-82
2021/12/25 11:41:14;;;;;;;;;;;;;;;;;;4997088;28;20276;-82
2021/12/25 11:43:45;;;;;;;;;;;;;;;;;;5014264;28;19925;-82
2021/12/25 11:46:11;;;;;;;;;;;;;;;;;;5014651;28;19924;-83
2021/12/25 11:48:39;;;;;;;;;;;;;;;;;;5014724;28;19917;-82
2021/12/25 11:51:06;;;;;;;;;;;;;;;;;;4997262;28;19913;-83
2021/12/25 11:58:39;;;;;;;;;;;;;;;;;;5013988;28;19932;-82
2021/12/25 12:01:23;;;;;;;;;;;;;;;;;;4997227;28;19913;-82
2021/12/25 12:03:56;;;;;;;;;;;;;;;;;;5014219;28;19917;-82
2021/12/25 12:06:43;;;;;;;;;;;;;;;;;;4997413;28;19936;-82
2021/12/25 12:09:11;;;;;;;;;;;;;;;;;;5014097;28;19917;-83
2021/12/25 12:11:40;;;;;;;;;;;;;;;;;;4996873;28;19972;-82
2021/12/25 12:14:19;;;;;;;;;;;;;;;;;;4997159;28;19918;-82
2021/12/25 12:16:52;;;;;;;;;;;;;;;;;;5014244;28;19992;-82
2021/12/25 12:19:33;;;;;;;;;;;;;;;;;;4996600;28;20023;-82
2021/12/25 12:21:59;;;;;;;;;;;;;;;;;;5013979;28;19918;-82
2021/12/25 12:24:48;;;;;;;;;;;;;;;;;;4996825;28;19913;-82
2021/12/25 12:27:32;;;;;;;;;;;;;;;;;;4995659;28;20402;-82
2021/12/25 12:30:00;;;;;;;;;;;;;;;;;;5014698;28;20334;-79
2021/12/25 12:32:33;;;;;;;;;;;;;;;;;;5001132;28;19913;-79
2021/12/25 12:34:58;;;;;;;;;;;;;;;;;;5019018;28;19913;-80
2021/12/25 12:37:24;;;;;;;;;;;;;;;;;;5012810;28;19931;-82
2021/12/25 12:39:53;;;;;;;;;;;;;;;;;;5047779;28;20002;-82
2021/12/25 12:42:18;;;;;;;;;;;;;;;;;;5049577;28;20142;-81
2021/12/25 12:44:43;;;;;;;;;;;;;;;;;;5047851;28;19925;-83
2021/12/25 12:47:13;;;;;;;;;;;;;;;;;;5056884;28;19904;-81
2021/12/25 12:49:38;;;;;;;;;;;;;;;;;;5048444;28;19936;-82
2021/12/25 12:52:09;;;;;;;;;;;;;;;;;;5045847;28;19913;-83
2021/12/25 12:54:41;;;;;;;;;;;;;;;;;;5046129;28;19917;-84
2021/12/25 12:57:06;;;;;;;;;;;;;;;;;;5043624;28;19923;-82
2021/12/25 12:59:42;;;;;;;;;;;;;;;;;;5036568;28;20330;-83
2021/12/25 13:02:07;;;;;;;;;;;;;;;;;;5036834;28;19913;-83
2021/12/25 13:04:45;;;;;;;;;;;;;;;;;;5037552;28;19913;-82
2021/12/25 13:07:13;;;;;;;;;;;;;;;;;;5037631;28;19923;-83
2021/12/25 13:09:44;;;;;;;;;;;;;;;;;;5035693;28;19956;-82
2021/12/25 13:12:20;;;;;;;;;;;;;;;;;;5036848;28;19913;-82
2021/12/25 13:14:56;;;;;;;;;;;;;;;;;;5035728;28;19913;-82
2021/12/25 13:17:21;;;;;;;;;;;;;;;;;;5035902;28;20001;-82
2021/12/25 13:19:49;;;;;;;;;;;;;;;;;;5036494;28;20535;-82
2021/12/25 13:22:14;;;;;;;;;;;;;;;;;;5037019;28;20013;-83
2021/12/25 13:24:39;;;;;;;;;;;;;;;;;;5036046;28;19952;-82
2021/12/25 13:27:07;;;;;;;;;;;;;;;;;;5036745;28;19924;-82
2021/12/25 13:29:32;;;;;;;;;;;;;;;;;;5036624;28;20004;-82
2021/12/25 13:31:57;;;;;;;;;;;;;;;;;;5036204;28;20018;-82
2021/12/25 13:34:23;;;;;;;;;;;;;;;;;;5037352;28;20004;-82
2021/12/25 13:36:54;;;;;;;;;;;;;;;;;;5035650;28;20342;-82
2021/12/25 13:39:24;;;;;;;;;;;;;;;;;;5036917;28;20016;-82
2021/12/25 13:41:52;;;;;;;;;;;;;;;;;;5035214;28;19928;-82
2021/12/25 13:44:17;;;;;;;;;;;;;;;;;;5035453;28;20042;-82
2021/12/25 13:46:45;;;;;;;;;;;;;;;;;;5035864;28;19948;-82
2021/12/25 13:49:29;;;;;;;;;;;;;;;;;;5035976;28;20023;-80
2021/12/25 13:51:55;;;;;;;;;;;;;;;;;;5035547;28;19982;-82
2021/12/25 13:54:20;;;;;;;;;;;;;;;;;;5035321;28;20342;-81
2021/12/25 13:56:46;;;;;;;;;;;;;;;;;;5034965;28;20223;-81
2021/12/25 13:59:11;;;;;;;;;;;;;;;;;;5035765;28;19917;-81
2021/12/25 14:01:37;;;;;;;;;;;;;;;;;;5035669;28;19912;-82
2021/12/25 14:04:11;;;;;;;;;;;;;;;;;;5034722;28;19913;-82
2021/12/25 14:06:37;;;;;;;;;;;;;;;;;;5035587;28;19917;-81
2021/12/25 14:09:03;;;;;;;;;;;;;;;;;;5034589;28;19924;-81
2021/12/25 14:11:28;;;;;;;;;;;;;;;;;;5034695;28;19921;-81
2021/12/25 14:13:54;;;;;;;;;;;;;;;;;;5034846;28;20250;-81
2021/12/25 14:16:21;;;;;;;;;;;;;;;;;;5034908;28;20349;-81
2021/12/25 14:18:47;;;;;;;;;;;;;;;;;;5034556;28;19917;-82
2021/12/25 14:21:13;;;;;;;;;;;;;;;;;;5017239;28;20015;-81
2021/12/25 14:23:39;;;;;;;;;;;;;;;;;;5034158;28;19917;-82
2021/12/25 14:26:04;;;;;;;;;;;;;;;;;;5018246;28;19917;-81
2021/12/25 14:28:35;;;;;;;;;;;;;;;;;;5035149;28;19913;-81
2021/12/25 14:31:11;;;;;;;;;;;;;;;;;;5034253;28;19913;-81
2021/12/25 14:33:37;;;;;;;;;;;;;;;;;;5035083;28;19917;-81
2021/12/25 14:36:09;;;;;;;;;;;;;;;;;;5033949;28;20407;-82
2021/12/25 14:38:35;;;;;;;;;;;;;;;;;;5033714;28;19921;-81
2021/12/25 14:41:00;;;;;;;;;;;;;;;;;;5034032;28;19917;-82
2021/12/25 14:43:30;;;;;;;;;;;;;;;;;;5035149;28;19924;-81
2021/12/25 14:45:56;;;;;;;;;;;;;;;;;;5033823;28;19974;-81
2021/12/25 14:48:30;;;;;;;;;;;;;;;;;;5034792;28;20342;-82
2021/12/25 14:50:59;;;;;;;;;;;;;;;;;;5034549;28;19927;-81
2021/12/25 14:53:27;;;;;;;;;;;;;;;;;;5017379;28;19924;-82
2021/12/25 14:55:57;;;;;;;;;;;;;;;;;;5033014;28;19914;-81
2021/12/25 14:58:24;;;;;;;;;;;;;;;;;;5031024;28;19955;-81
2021/12/25 15:01:03;;;;;;;;;;;;;;;;;;5035653;28;19932;-81
2021/12/25 15:03:28;;;;;;;;;;;;;;;;;;5037093;28;19935;-82
2021/12/25 15:06:11;;;;;;;;;;;;;;;;;;5034593;28;20015;-82
2021/12/25 15:08:37;;;;;;;;;;;;;;;;;;5024420;28;19921;-82
2021/12/25 15:11:06;;;;;;;;;;;;;;;;;;5024330;28;20309;-81
2021/12/25 15:13:31;;;;;;;;;;;;;;;;;;5049996;28;19967;-81
2021/12/25 15:15:57;;;;;;;;;;;;;;;;;;5047053;28;19917;-81
2021/12/25 15:18:24;;;;;;;;;;;;;;;;;;5015515;28;20442;-81
2021/12/25 15:21:01;;;;;;;;;;;;;;;;;;5032903;28;19999;-81
2021/12/25 15:23:26;;;;;;;;;;;;;;;;;;5032436;28;19940;-81
2021/12/25 15:26:02;;;;;;;;;;;;;;;;;;5036372;28;20374;-81
2021/12/25 15:28:27;;;;;;;;;;;;;;;;;;5033663;28;19928;-82
2021/12/25 15:30:55;;;;;;;;;;;;;;;;;;5015708;28;19941;-81
2021/12/25 15:33:20;;;;;;;;;;;;;;;;;;5032681;28;20362;-81
2021/12/25 15:35:47;;;;;;;;;;;;;;;;;;5031940;28;19928;-80
2021/12/25 15:38:22;;;;;;;;;;;;;;;;;;5048166;28;19917;-81
2021/12/25 15:40:49;;;;;;;;;;;;;;;;;;5045429;28;19928;-80
2021/12/25 15:43:17;;;;;;;;;;;;;;;;;;5032837;28;19913;-80
2021/12/25 15:45:42;;;;;;;;;;;;;;;;;;5036185;28;20354;-81
2021/12/25 15:48:07;;;;;;;;;;;;;;;;;;5012534;28;19913;-81
2021/12/25 15:50:34;;;;;;;;;;;;;;;;;;5013166;28;20263;-82
2021/12/25 15:53:00;;;;;;;;;;;;;;;;;;5015797;28;19917;-81
2021/12/25 15:55:28;;;;;;;;;;;;;;;;;;5025458;28;20369;-81
2021/12/25 15:58:02;;;;;;;;;;;;;;;;;;5012854;28;19952;-82
2021/12/25 16:00:27;;;;;;;;;;;;;;;;;;5012371;28;20000;-81
2021/12/25 16:02:52;;;;;;;;;;;;;;;;;;5020543;28;20004;-81
2021/12/25 16:05:18;;;;;;;;;;;;;;;;;;5032020;28;19916;-80
2021/12/25 16:07:43;;;;;;;;;;;;;;;;;;5002778;28;19922;-81
2021/12/25 16:10:09;;;;;;;;;;;;;;;;;;5000769;28;19921;-81
2021/12/25 16:12:35;;;;;;;;;;;;;;;;;;5015811;28;20405;-80
2021/12/25 16:15:00;;;;;;;;;;;;;;;;;;5016778;28;19953;-81
2021/12/25 16:17:30;;;;;;;;;;;;;;;;;;5032572;28;19912;-80
2021/12/25 16:19:55;;;;;;;;;;;;;;;;;;5052596;28;19964;-80
2021/12/25 16:22:20;;;;;;;;;;;;;;;;;;5029156;28;19921;-80
2021/12/25 16:24:46;;;;;;;;;;;;;;;;;;5024643;28;19971;-80
2021/12/25 16:27:11;;;;;;;;;;;;;;;;;;5038709;28;19913;-80
2021/12/25 16:29:36;;;;;;;;;;;;;;;;;;5037554;28;19920;-80
2021/12/25 16:32:02;;;;;;;;;;;;;;;;;;5038160;28;19917;-80
2021/12/25 16:34:29;;;;;;;;;;;;;;;;;;5037031;28;19913;-81
2021/12/25 16:36:55;;;;;;;;;;;;;;;;;;5034363;28;20316;-81
2021/12/25 16:39:22;;;;;;;;;;;;;;;;;;5057129;28;20059;-81
2021/12/25 16:41:48;;;;;;;;;;;;;;;;;;5052700;28;19928;-80
2021/12/25 16:44:14;;;;;;;;;;;;;;;;;;5036472;28;19913;-81
2021/12/25 16:46:40;;;;;;;;;;;;;;;;;;5016610;28;19922;-81
2021/12/25 16:49:06;;;;;;;;;;;;;;;;;;5038598;28;19921;-81
2021/12/25 16:51:31;;;;;;;;;;;;;;;;;;5041326;28;19921;-81
2021/12/25 16:53:56;;;;;;;;;;;;;;;;;;5037032;28;19913;-81
2021/12/25 16:56:21;;;;;;;;;;;;;;;;;;5038175;28;19924;-81
2021/12/25 16:58:47;;;;;;;;;;;;;;;;;;5035971;28;20000;-81
2021/12/25 17:01:12;;;;;;;;;;;;;;;;;;5047553;28;20448;-81
2021/12/25 17:03:37;;;;;;;;;;;;;;;;;;5047130;28;19971;-81
2021/12/25 17:06:03;;;;;;;;;;;;;;;;;;5040856;28;19982;-81
2021/12/25 17:08:28;;;;;;;;;;;;;;;;;;5044549;28;20324;-81
2021/12/25 17:10:53;;;;;;;;;;;;;;;;;;5050983;28;19916;-81
2021/12/25 17:13:19;;;;;;;;;;;;;;;;;;5053417;28;19928;-79
2021/12/25 17:15:45;;;;;;;;;;;;;;;;;;5035792;28;19923;-81
2021/12/25 17:21:02;;;;;;;;;;;;;;;;;;5029978;28;19932;-81
2021/12/25 17:23:39;;;;;;;;;;;;;;;;;;5048417;28;19917;-82
2021/12/25 17:26:04;;;;;;;;;;;;;;;;;;5036588;28;19913;-83
2021/12/25 17:28:29;;;;;;;;;;;;;;;;;;5026289;28;20332;-84
2021/12/25 17:30:55;;;;;;;;;;;;;;;;;;5017149;28;19975;-83
2021/12/25 17:33:23;;;;;;;;;;;;;;;;;;5024883;28;19983;-82
2021/12/25 17:35:56;;;;;;;;;;;;;;;;;;5036733;28;19928;-83
2021/12/25 17:38:22;;;;;;;;;;;;;;;;;;5035579;28;19921;-80
2021/12/25 17:40:47;;;;;;;;;;;;;;;;;;5035795;28;20016;-83
2021/12/25 17:43:13;;;;;;;;;;;;;;;;;;5056587;28;20366;-85
2021/12/25 17:45:42;;;;;;;;;;;;;;;;;;5023393;28;19921;-82
2021/12/25 17:48:07;;;;;;;;;;;;;;;;;;5034597;28;19999;-81
2021/12/25 17:50:33;;;;;;;;;;;;;;;;;;5053484;28;20012;-81
2021/12/25 17:53:01;;;;;;;;;;;;;;;;;;5052593;28;19928;-81
2021/12/25 17:55:26;;;;;;;;;;;;;;;;;;5053921;28;19917;-82
2021/12/25 17:57:53;;;;;;;;;;;;;;;;;;5035088;28;19966;-81
2021/12/25 18:00:20;;;;;;;;;;;;;;;;;;5035190;28;19917;-82
2021/12/25 18:02:45;;;;;;;;;;;;;;;;;;5035140;28;19913;-81
2021/12/25 18:05:11;;;;;;;;;;;;;;;;;;5035349;28;19981;-86
2021/12/25 18:07:38;;;;;;;;;;;;;;;;;;5043609;28;19939;-81
2021/12/25 18:10:08;;;;;;;;;;;;;;;;;;5039095;28;19944;-81